createdAt,value
2017-12-03T00:00:10.892Z,101271
2017-12-03T00:01:11.047Z,101267
2017-12-03T00:02:11.946Z,101266
2017-12-03T00:03:11.959Z,101268
2017-12-03T00:04:11.990Z,101257
2017-12-03T00:05:11.214Z,101263
2017-12-03T00:06:11.283Z,101260
2017-12-03T00:07:12.183Z,101263
2017-12-03T00:08:11.338Z,101257
2017-12-03T00:09:11.277Z,101255
2017-12-03T00:10:12.283Z,101255
2017-12-03T00:11:12.450Z,101254
2017-12-03T00:12:12.488Z,101253
2017-12-03T00:13:12.436Z,101249
2017-12-03T00:14:12.585Z,101242
2017-12-03T00:15:12.529Z,101249
2017-12-03T00:16:12.566Z,101247
2017-12-03T00:17:11.749Z,101242
2017-12-03T00:18:11.699Z,101241
2017-12-03T00:19:12.727Z,101249
2017-12-03T00:20:11.905Z,101243
2017-12-03T00:21:11.912Z,101241
2017-12-03T00:22:12.867Z,101236
2017-12-03T00:23:11.909Z,101243
2017-12-03T00:24:11.971Z,101237
2017-12-03T00:25:12.104Z,101239
2017-12-03T00:26:12.073Z,101230
2017-12-03T00:27:13.227Z,101242
2017-12-03T00:28:12.317Z,101238
2017-12-03T00:29:12.304Z,101238
2017-12-03T00:30:13.189Z,101227
2017-12-03T00:31:13.316Z,101234
2017-12-03T00:32:12.390Z,101237
2017-12-03T00:33:13.413Z,101235
2017-12-03T00:34:13.313Z,101225
2017-12-03T00:35:13.823Z,101235
2017-12-03T00:36:12.415Z,101233
2017-12-03T00:37:13.531Z,101224
2017-12-03T00:38:13.575Z,101228
2017-12-03T00:39:13.473Z,101226
2017-12-03T00:40:13.506Z,101231
2017-12-03T00:41:13.553Z,101226
2017-12-03T00:42:13.712Z,101234
2017-12-03T00:43:12.820Z,101232
2017-12-03T00:44:13.873Z,101234
2017-12-03T00:45:13.924Z,101228
2017-12-03T00:46:13.970Z,101229
2017-12-03T00:47:13.022Z,101228
2017-12-03T00:48:13.910Z,101231
2017-12-03T00:49:13.054Z,101224
2017-12-03T00:50:13.121Z,101222
2017-12-03T00:51:14.100Z,101223
2017-12-03T00:52:13.159Z,101211
2017-12-03T00:53:14.171Z,101221
2017-12-03T00:54:13.190Z,101216
2017-12-03T00:55:14.273Z,101222
2017-12-03T00:56:13.357Z,101223
2017-12-03T00:57:13.308Z,101223
2017-12-03T00:58:14.424Z,101222
2017-12-03T00:59:14.335Z,101218
2017-12-03T01:00:13.435Z,101223
2017-12-03T01:01:13.583Z,101209
2017-12-03T01:02:13.590Z,101215
2017-12-03T01:03:13.523Z,101207
2017-12-03T01:04:13.660Z,101219
2017-12-03T01:05:13.746Z,101219
2017-12-03T01:06:14.634Z,101218
2017-12-03T01:07:13.762Z,101208
2017-12-03T01:08:13.682Z,101217
2017-12-03T01:09:14.675Z,101221
2017-12-03T01:10:13.853Z,101226
2017-12-03T01:11:14.765Z,101221
2017-12-03T01:12:13.819Z,101219
2017-12-03T01:13:14.973Z,101221
2017-12-03T01:14:14.032Z,101219
2017-12-03T01:15:15.705Z,101217
2017-12-03T01:16:14.135Z,101206
2017-12-03T01:17:15.011Z,101213
2017-12-03T01:18:15.032Z,101209
2017-12-03T01:19:14.270Z,101218
2017-12-03T01:20:14.260Z,101224
2017-12-03T01:21:14.303Z,101217
2017-12-03T01:22:15.421Z,101217
2017-12-03T01:23:14.399Z,101215
2017-12-03T01:24:14.554Z,101218
2017-12-03T01:25:15.602Z,101216
2017-12-03T01:26:15.710Z,101220
2017-12-03T01:27:14.788Z,101217
2017-12-03T01:28:15.764Z,101215
2017-12-03T01:29:15.739Z,101214
2017-12-03T01:30:15.904Z,101213
2017-12-03T01:31:15.967Z,101216
2017-12-03T01:32:15.890Z,101210
2017-12-03T01:33:16.023Z,101214
2017-12-03T01:34:15.931Z,101209
2017-12-03T01:35:16.010Z,101207
2017-12-03T01:36:15.168Z,101200
2017-12-03T01:37:15.319Z,101206
2017-12-03T01:38:15.234Z,101203
2017-12-03T01:39:15.274Z,101202
2017-12-03T01:40:15.220Z,101203
2017-12-03T01:41:16.223Z,101205
2017-12-03T01:42:15.429Z,101207
2017-12-03T01:43:15.503Z,101205
2017-12-03T01:44:15.538Z,101200
2017-12-03T01:45:15.704Z,101207
2017-12-03T01:46:16.711Z,101207
2017-12-03T01:47:15.756Z,101199
2017-12-03T01:48:15.749Z,101211
2017-12-03T01:49:15.803Z,101201
2017-12-03T01:50:15.959Z,101205
2017-12-03T01:51:16.862Z,101201
2017-12-03T01:52:16.091Z,101207
2017-12-03T01:53:16.999Z,101206
2017-12-03T01:54:16.165Z,101197
2017-12-03T01:55:17.126Z,101200
2017-12-03T01:56:16.228Z,101191
2017-12-03T01:57:16.294Z,101194
2017-12-03T01:58:17.308Z,101185
2017-12-03T01:59:16.382Z,101190
2017-12-03T02:00:17.153Z,101183
2017-12-03T02:01:16.564Z,101183
2017-12-03T02:02:17.589Z,101174
2017-12-03T02:03:17.577Z,101182
2017-12-03T02:04:17.641Z,101168
2017-12-03T02:05:16.711Z,101175
2017-12-03T02:06:17.702Z,101176
2017-12-03T02:07:17.828Z,101174
2017-12-03T02:08:16.915Z,101170
2017-12-03T02:09:17.806Z,101180
2017-12-03T02:10:16.868Z,101180
2017-12-03T02:11:17.044Z,101182
2017-12-03T02:12:18.077Z,101181
2017-12-03T02:13:18.050Z,101184
2017-12-03T02:14:18.184Z,101176
2017-12-03T02:15:17.353Z,101178
2017-12-03T02:16:17.541Z,101175
2017-12-03T02:17:17.578Z,101175
2017-12-03T02:18:18.517Z,101171
2017-12-03T02:19:17.552Z,101168
2017-12-03T02:20:18.652Z,101168
2017-12-03T02:21:17.654Z,101169
2017-12-03T02:22:17.736Z,101169
2017-12-03T02:23:18.528Z,101166
2017-12-03T02:24:17.596Z,101160
2017-12-03T02:25:17.940Z,101170
2017-12-03T02:26:17.821Z,101162
2017-12-03T02:27:17.808Z,101169
2017-12-03T02:28:18.752Z,101163
2017-12-03T02:29:18.764Z,101170
2017-12-03T02:30:18.936Z,101174
2017-12-03T02:31:18.977Z,101172
2017-12-03T02:32:18.006Z,101171
2017-12-03T02:33:19.126Z,101165
2017-12-03T02:34:18.102Z,101173
2017-12-03T02:35:18.253Z,101163
2017-12-03T02:36:18.144Z,101170
2017-12-03T02:37:19.190Z,101170
2017-12-03T02:38:19.249Z,101163
2017-12-03T02:39:18.309Z,101165
2017-12-03T02:40:19.428Z,101165
2017-12-03T02:41:19.504Z,101162
2017-12-03T02:42:18.453Z,101166
2017-12-03T02:43:18.539Z,101166
2017-12-03T02:44:18.655Z,101164
2017-12-03T02:45:18.717Z,101166
2017-12-03T02:46:18.872Z,101164
2017-12-03T02:47:19.711Z,101165
2017-12-03T02:48:19.870Z,101170
2017-12-03T02:49:19.814Z,101166
2017-12-03T02:50:20.028Z,101166
2017-12-03T02:51:18.987Z,101170
2017-12-03T02:52:20.098Z,101163
2017-12-03T02:53:19.162Z,101167
2017-12-03T02:54:19.046Z,101158
2017-12-03T02:55:20.081Z,101167
2017-12-03T02:56:20.139Z,101166
2017-12-03T02:57:19.378Z,101160
2017-12-03T02:58:20.448Z,101159
2017-12-03T02:59:19.439Z,101159
2017-12-03T03:00:20.514Z,101157
2017-12-03T03:01:20.581Z,101158
2017-12-03T03:02:20.556Z,101161
2017-12-03T03:03:19.712Z,101150
2017-12-03T03:04:19.664Z,101157
2017-12-03T03:05:20.682Z,101144
2017-12-03T03:06:19.830Z,101151
2017-12-03T03:07:19.956Z,101149
2017-12-03T03:08:20.978Z,101134
2017-12-03T03:09:19.918Z,101144
2017-12-03T03:10:21.004Z,101135
2017-12-03T03:11:21.014Z,101140
2017-12-03T03:12:20.057Z,101129
2017-12-03T03:13:20.139Z,101133
2017-12-03T03:14:21.158Z,101133
2017-12-03T03:15:21.215Z,101129
2017-12-03T03:16:21.287Z,101129
2017-12-03T03:17:20.436Z,101124
2017-12-03T03:18:20.355Z,101118
2017-12-03T03:19:20.399Z,101122
2017-12-03T03:20:21.539Z,101122
2017-12-03T03:21:21.494Z,101132
2017-12-03T03:22:21.626Z,101130
2017-12-03T03:23:21.598Z,101130
2017-12-03T03:24:21.748Z,101132
2017-12-03T03:25:21.797Z,101117
2017-12-03T03:26:20.903Z,101125
2017-12-03T03:27:20.842Z,101119
2017-12-03T03:28:20.889Z,101122
2017-12-03T03:29:21.037Z,101122
2017-12-03T03:30:21.096Z,101115
2017-12-03T03:31:21.999Z,101121
2017-12-03T03:32:22.057Z,101119
2017-12-03T03:33:21.212Z,101108
2017-12-03T03:34:21.169Z,101117
2017-12-03T03:35:22.144Z,101117
2017-12-03T03:36:22.262Z,101112
2017-12-03T03:37:21.374Z,101113
2017-12-03T03:38:21.322Z,101118
2017-12-03T03:39:21.350Z,101110
2017-12-03T03:40:22.378Z,101113
2017-12-03T03:41:21.527Z,101115
2017-12-03T03:42:21.570Z,101116
2017-12-03T03:43:21.508Z,101116
2017-12-03T03:44:21.553Z,101117
2017-12-03T03:45:21.719Z,101118
2017-12-03T03:46:22.761Z,101110
2017-12-03T03:47:22.812Z,101115
2017-12-03T03:48:22.797Z,101122
2017-12-03T03:49:22.871Z,101120
2017-12-03T03:50:21.923Z,101114
2017-12-03T03:51:22.970Z,101120
2017-12-03T03:52:22.015Z,101105
2017-12-03T03:53:23.161Z,101115
2017-12-03T03:54:22.175Z,101106
2017-12-03T03:55:23.206Z,101109
2017-12-03T03:56:23.192Z,101106
2017-12-03T03:57:22.338Z,101111
2017-12-03T03:58:23.295Z,101112
2017-12-03T03:59:22.374Z,101098
2017-12-03T04:00:23.356Z,101108
2017-12-03T04:01:22.510Z,101099
2017-12-03T04:02:22.511Z,101104
2017-12-03T04:03:22.464Z,101110
2017-12-03T04:04:22.510Z,101101
2017-12-03T04:05:23.499Z,101108
2017-12-03T04:06:23.675Z,101110
2017-12-03T04:07:23.622Z,101110
2017-12-03T04:08:22.666Z,101106
2017-12-03T04:09:23.686Z,101112
2017-12-03T04:10:22.830Z,101105
2017-12-03T04:11:23.727Z,101103
2017-12-03T04:12:23.816Z,101108
2017-12-03T04:13:23.884Z,101104
2017-12-03T04:14:23.939Z,101106
2017-12-03T04:15:24.087Z,101107
2017-12-03T04:16:23.388Z,101114
2017-12-03T04:17:23.260Z,101110
2017-12-03T04:18:23.188Z,101104
2017-12-03T04:19:23.288Z,101110
2017-12-03T04:20:23.302Z,101108
2017-12-03T04:21:24.332Z,101107
2017-12-03T04:22:23.287Z,101110
2017-12-03T04:23:23.313Z,101107
2017-12-03T04:24:24.297Z,101105
2017-12-03T04:25:24.430Z,101095
2017-12-03T04:26:23.433Z,101103
2017-12-03T04:27:24.418Z,101105
2017-12-03T04:28:24.550Z,101095
2017-12-03T04:29:23.526Z,101103
2017-12-03T04:30:24.638Z,101105
2017-12-03T04:31:24.598Z,101102
2017-12-03T04:32:23.682Z,101102
2017-12-03T04:33:23.850Z,101101
2017-12-03T04:34:24.842Z,101102
2017-12-03T04:35:24.739Z,101096
2017-12-03T04:36:24.783Z,101102
2017-12-03T04:37:24.873Z,101102
2017-12-03T04:38:24.826Z,101094
2017-12-03T04:39:24.940Z,101103
2017-12-03T04:40:24.986Z,101103
2017-12-03T04:41:24.892Z,101104
2017-12-03T04:42:24.962Z,101094
2017-12-03T04:43:25.085Z,101099
2017-12-03T04:44:25.017Z,101099
2017-12-03T04:45:24.124Z,101091
2017-12-03T04:46:25.175Z,101101
2017-12-03T04:47:24.120Z,101100
2017-12-03T04:48:24.278Z,101097
2017-12-03T04:49:24.277Z,101100
2017-12-03T04:50:24.257Z,101099
2017-12-03T04:51:24.282Z,101098
2017-12-03T04:52:25.328Z,101091
2017-12-03T04:53:24.505Z,101096
2017-12-03T04:54:25.392Z,101092
2017-12-03T04:55:25.407Z,101096
2017-12-03T04:56:24.472Z,101095
2017-12-03T04:57:25.473Z,101094
2017-12-03T04:58:25.572Z,101089
2017-12-03T04:59:24.769Z,101099
2017-12-03T05:00:25.919Z,101091
2017-12-03T05:01:25.683Z,101095
2017-12-03T05:02:24.826Z,101095
2017-12-03T05:03:25.954Z,101089
2017-12-03T05:04:24.974Z,101089
2017-12-03T05:05:25.151Z,101092
2017-12-03T05:06:25.072Z,101093
2017-12-03T05:07:25.206Z,101093
2017-12-03T05:08:26.111Z,101083
2017-12-03T05:09:25.267Z,101094
2017-12-03T05:10:25.283Z,101097
2017-12-03T05:11:26.179Z,101088
2017-12-03T05:12:26.288Z,101090
2017-12-03T05:13:26.195Z,101079
2017-12-03T05:14:25.309Z,101086
2017-12-03T05:15:26.452Z,101087
2017-12-03T05:16:25.440Z,101072
2017-12-03T05:17:26.447Z,101086
2017-12-03T05:18:26.552Z,101079
2017-12-03T05:19:25.493Z,101072
2017-12-03T05:20:26.644Z,101077
2017-12-03T05:21:25.703Z,101078
2017-12-03T05:22:25.722Z,101071
2017-12-03T05:23:25.836Z,101068
2017-12-03T05:24:26.725Z,101068
2017-12-03T05:25:26.729Z,101067
2017-12-03T05:26:25.796Z,101067
2017-12-03T05:27:25.947Z,101069
2017-12-03T05:28:26.826Z,101071
2017-12-03T05:29:26.855Z,101070
2017-12-03T05:30:26.904Z,101073
2017-12-03T05:31:27.020Z,101072
2017-12-03T05:32:26.116Z,101069
2017-12-03T05:33:26.047Z,101073
2017-12-03T05:34:27.503Z,101063
2017-12-03T05:35:26.276Z,101072
2017-12-03T05:36:26.320Z,101071
2017-12-03T05:37:27.381Z,101069
2017-12-03T05:38:27.326Z,101069
2017-12-03T05:39:26.494Z,101072
2017-12-03T05:40:27.714Z,101069
2017-12-03T05:41:26.595Z,101058
2017-12-03T05:42:27.487Z,101069
2017-12-03T05:43:27.562Z,101058
2017-12-03T05:44:26.624Z,101069
2017-12-03T05:45:27.623Z,101070
2017-12-03T05:46:26.783Z,101069
2017-12-03T05:47:27.643Z,101066
2017-12-03T05:48:27.662Z,101067
2017-12-03T05:49:27.805Z,101068
2017-12-03T05:50:27.793Z,101069
2017-12-03T05:52:26.932Z,101056
2017-12-03T05:53:27.864Z,101058
2017-12-03T05:54:27.881Z,101052
2017-12-03T05:55:27.037Z,101057
2017-12-03T05:56:28.089Z,101055
2017-12-03T05:57:27.986Z,101056
2017-12-03T05:58:28.040Z,101051
2017-12-03T05:59:27.198Z,101052
2017-12-03T06:00:28.118Z,101042
2017-12-03T06:01:27.268Z,101051
2017-12-03T06:02:28.179Z,101048
2017-12-03T06:03:27.300Z,101045
2017-12-03T06:04:27.486Z,101034
2017-12-03T06:05:28.394Z,101041
2017-12-03T06:06:28.514Z,101049
2017-12-03T06:07:27.622Z,101048
2017-12-03T06:08:27.590Z,101044
2017-12-03T06:09:28.700Z,101048
2017-12-03T06:10:27.626Z,101054
2017-12-03T06:11:27.686Z,101048
2017-12-03T06:12:28.692Z,101041
2017-12-03T06:13:28.806Z,101046
2017-12-03T06:14:28.784Z,101039
2017-12-03T06:15:27.949Z,101052
2017-12-03T06:16:28.800Z,101051
2017-12-03T06:17:28.911Z,101053
2017-12-03T06:18:28.957Z,101054
2017-12-03T06:19:29.077Z,101059
2017-12-03T06:20:28.192Z,101055
2017-12-03T06:21:28.230Z,101054
2017-12-03T06:22:28.135Z,101048
2017-12-03T06:23:28.283Z,101059
2017-12-03T06:24:28.196Z,101058
2017-12-03T06:25:29.183Z,101060
2017-12-03T06:26:28.264Z,101064
2017-12-03T06:27:29.274Z,101062
2017-12-03T06:28:29.395Z,101052
2017-12-03T06:29:29.484Z,101063
2017-12-03T06:30:28.462Z,101052
2017-12-03T06:31:29.583Z,101065
2017-12-03T06:32:29.674Z,101060
2017-12-03T06:33:28.740Z,101061
2017-12-03T06:34:28.819Z,101058
2017-12-03T06:35:29.838Z,101060
2017-12-03T06:36:28.819Z,101048
2017-12-03T06:37:28.913Z,101059
2017-12-03T06:38:30.051Z,101058
2017-12-03T06:39:29.979Z,101057
2017-12-03T06:40:30.023Z,101057
2017-12-03T06:41:30.031Z,101061
2017-12-03T06:42:30.224Z,101062
2017-12-03T06:43:30.131Z,101062
2017-12-03T06:44:29.207Z,101053
2017-12-03T06:45:30.291Z,101062
2017-12-03T06:46:30.243Z,101059
2017-12-03T06:47:30.443Z,101061
2017-12-03T06:48:29.575Z,101059
2017-12-03T06:49:29.510Z,101060
2017-12-03T06:50:30.517Z,101062
2017-12-03T06:51:30.713Z,101059
2017-12-03T06:52:29.678Z,101051
2017-12-03T06:53:30.639Z,101057
2017-12-03T06:54:29.869Z,101062
2017-12-03T06:55:29.869Z,101060
2017-12-03T06:56:30.900Z,101057
2017-12-03T06:57:29.859Z,101059
2017-12-03T06:58:30.036Z,101053
2017-12-03T06:59:30.053Z,101062
2017-12-03T07:00:31.101Z,101053
2017-12-03T07:01:31.145Z,101068
2017-12-03T07:02:31.182Z,101066
2017-12-03T07:03:31.272Z,101066
2017-12-03T07:04:31.161Z,101066
2017-12-03T07:05:31.290Z,101057
2017-12-03T07:06:31.361Z,101068
2017-12-03T07:07:30.443Z,101066
2017-12-03T07:08:31.330Z,101070
2017-12-03T07:09:30.512Z,101067
2017-12-03T07:10:30.526Z,101073
2017-12-03T07:11:30.525Z,101067
2017-12-03T07:12:31.430Z,101069
2017-12-03T07:13:30.607Z,101067
2017-12-03T07:14:31.458Z,101075
2017-12-03T07:15:30.619Z,101069
2017-12-03T07:16:31.605Z,101073
2017-12-03T07:17:30.611Z,101073
2017-12-03T07:18:30.785Z,101073
2017-12-03T07:19:30.777Z,101069
2017-12-03T07:20:30.812Z,101068
2017-12-03T07:21:30.922Z,101068
2017-12-03T07:22:31.006Z,101070
2017-12-03T07:23:31.063Z,101067
2017-12-03T07:24:32.085Z,101060
2017-12-03T07:25:32.157Z,101067
2017-12-03T07:26:32.090Z,101064
2017-12-03T07:27:31.336Z,101056
2017-12-03T07:28:31.280Z,101065
2017-12-03T07:29:31.440Z,101057
2017-12-03T07:30:31.428Z,101064
2017-12-03T07:31:31.456Z,101063
2017-12-03T07:32:31.496Z,101063
2017-12-03T07:33:32.518Z,101066
2017-12-03T07:34:32.649Z,101064
2017-12-03T07:35:31.625Z,101071
2017-12-03T07:36:32.692Z,101067
2017-12-03T07:37:31.844Z,101070
2017-12-03T07:38:31.782Z,101066
2017-12-03T07:39:31.816Z,101070
2017-12-03T07:40:32.013Z,101068
2017-12-03T07:41:31.941Z,101068
2017-12-03T07:42:31.973Z,101063
2017-12-03T07:43:33.069Z,101068
2017-12-03T07:44:32.055Z,101068
2017-12-03T07:45:33.056Z,101067
2017-12-03T07:46:33.197Z,101065
2017-12-03T07:47:32.187Z,101069
2017-12-03T07:48:32.177Z,101067
2017-12-03T07:49:33.206Z,101065
2017-12-03T07:50:33.356Z,101072
2017-12-03T07:51:32.336Z,101068
2017-12-03T07:52:32.504Z,101071
2017-12-03T07:53:33.435Z,101068
2017-12-03T07:54:32.542Z,101063
2017-12-03T07:55:32.636Z,101069
2017-12-03T07:56:33.668Z,101067
2017-12-03T07:57:33.644Z,101063
2017-12-03T07:58:32.857Z,101068
2017-12-03T07:59:32.882Z,101054
2017-12-03T08:00:33.805Z,101066
2017-12-03T08:01:33.927Z,101054
2017-12-03T08:02:32.914Z,101065
2017-12-03T08:03:33.928Z,101062
2017-12-03T08:04:34.086Z,101064
2017-12-03T08:05:33.179Z,101067
2017-12-03T08:06:33.143Z,101070
2017-12-03T08:07:33.324Z,101068
2017-12-03T08:08:33.332Z,101073
2017-12-03T08:09:33.302Z,101070
2017-12-03T08:10:34.424Z,101060
2017-12-03T08:11:33.400Z,101067
2017-12-03T08:12:33.417Z,101060
2017-12-03T08:13:34.399Z,101066
2017-12-03T08:14:33.634Z,101067
2017-12-03T08:15:33.735Z,101073
2017-12-03T08:16:33.748Z,101069
2017-12-03T08:17:33.677Z,101077
2017-12-03T08:18:33.729Z,101066
2017-12-03T08:19:33.872Z,101067
2017-12-03T08:20:33.942Z,101065
2017-12-03T08:21:34.847Z,101059
2017-12-03T08:22:34.856Z,101068
2017-12-03T08:23:35.034Z,101069
2017-12-03T08:24:35.122Z,101062
2017-12-03T08:25:34.231Z,101067
2017-12-03T08:26:34.254Z,101067
2017-12-03T08:27:35.314Z,101067
2017-12-03T08:28:35.374Z,101074
2017-12-03T08:29:34.359Z,101064
2017-12-03T08:30:34.510Z,101071
2017-12-03T08:31:34.643Z,101071
2017-12-03T08:32:34.700Z,101061
2017-12-03T08:33:34.737Z,101075
2017-12-03T08:34:34.660Z,101074
2017-12-03T08:35:34.739Z,101078
2017-12-03T08:36:34.911Z,101080
2017-12-03T08:37:34.866Z,101081
2017-12-03T08:38:35.858Z,101084
2017-12-03T08:39:35.033Z,101082
2017-12-03T08:40:35.071Z,101080
2017-12-03T08:41:34.981Z,101074
2017-12-03T08:42:35.063Z,101081
2017-12-03T08:43:35.240Z,101081
2017-12-03T08:44:36.179Z,101084
2017-12-03T08:45:35.325Z,101083
2017-12-03T08:46:35.246Z,101084
2017-12-03T08:47:36.264Z,101075
2017-12-03T08:48:35.368Z,101084
2017-12-03T08:49:35.539Z,101080
2017-12-03T08:50:36.518Z,101079
2017-12-03T08:51:35.584Z,101080
2017-12-03T08:52:35.660Z,101071
2017-12-03T08:53:35.620Z,101083
2017-12-03T08:54:36.737Z,101080
2017-12-03T08:55:36.719Z,101084
2017-12-03T08:56:36.875Z,101083
2017-12-03T08:57:36.896Z,101069
2017-12-03T08:58:36.836Z,101077
2017-12-03T08:59:36.950Z,101073
2017-12-03T09:00:36.998Z,101071
2017-12-03T09:01:37.123Z,101078
2017-12-03T09:02:36.138Z,101078
2017-12-03T09:03:37.171Z,101076
2017-12-03T09:04:36.190Z,101076
2017-12-03T09:05:36.356Z,101076
2017-12-03T09:06:36.386Z,101069
2017-12-03T09:07:36.478Z,101065
2017-12-03T09:08:36.531Z,101073
2017-12-03T09:09:37.572Z,101070
2017-12-03T09:10:36.676Z,101075
2017-12-03T09:11:36.709Z,101071
2017-12-03T09:12:36.636Z,101059
2017-12-03T09:13:37.760Z,101073
2017-12-03T09:14:36.795Z,101063
2017-12-03T09:15:37.902Z,101072
2017-12-03T09:16:37.958Z,101070
2017-12-03T09:17:36.912Z,101070
2017-12-03T09:18:37.987Z,101072
2017-12-03T09:19:38.060Z,101070
2017-12-03T09:20:37.072Z,101074
2017-12-03T09:21:38.126Z,101072
2017-12-03T09:22:37.290Z,101074
2017-12-03T09:23:38.197Z,101070
2017-12-03T09:24:38.202Z,101072
2017-12-03T09:25:38.256Z,101071
2017-12-03T09:26:38.276Z,101066
2017-12-03T09:27:37.413Z,101075
2017-12-03T09:28:37.372Z,101072
2017-12-03T09:29:38.529Z,101076
2017-12-03T09:30:38.571Z,101073
2017-12-03T09:31:38.630Z,101077
2017-12-03T09:32:37.675Z,101076
2017-12-03T09:33:37.728Z,101074
2017-12-03T09:34:38.665Z,101072
2017-12-03T09:35:37.831Z,101073
2017-12-03T09:36:37.873Z,101073
2017-12-03T09:37:38.836Z,101075
2017-12-03T09:38:38.862Z,101074
2017-12-03T09:39:38.093Z,101074
2017-12-03T09:40:38.101Z,101066
2017-12-03T09:41:39.021Z,101075
2017-12-03T09:42:38.206Z,101071
2017-12-03T09:43:38.173Z,101073
2017-12-03T09:44:39.302Z,101076
2017-12-03T09:45:38.333Z,101082
2017-12-03T09:46:38.503Z,101079
2017-12-03T09:47:39.371Z,101087
2017-12-03T09:48:38.565Z,101081
2017-12-03T09:49:38.603Z,101074
2017-12-03T09:50:39.485Z,101084
2017-12-03T09:51:38.647Z,101086
2017-12-03T09:52:39.624Z,101078
2017-12-03T09:53:39.762Z,101084
2017-12-03T09:54:39.660Z,101072
2017-12-03T09:55:39.870Z,101082
2017-12-03T09:56:38.938Z,101083
2017-12-03T09:57:40.007Z,101085
2017-12-03T09:58:39.008Z,101080
2017-12-03T09:59:40.085Z,101078
2017-12-03T10:00:39.175Z,101076
2017-12-03T10:01:40.106Z,101073
2017-12-03T10:02:39.259Z,101061
2017-12-03T10:03:39.171Z,101072
2017-12-03T10:04:39.252Z,101070
2017-12-03T10:05:40.376Z,101066
2017-12-03T10:06:40.284Z,101064
2017-12-03T10:07:39.511Z,101067
2017-12-03T10:08:39.413Z,101061
2017-12-03T10:09:39.610Z,101067
2017-12-03T10:10:39.556Z,101068
2017-12-03T10:11:40.573Z,101065
2017-12-03T10:12:40.641Z,101061
2017-12-03T10:13:39.725Z,101061
2017-12-03T10:14:40.708Z,101055
2017-12-03T10:15:40.802Z,101058
2017-12-03T10:16:39.862Z,101061
2017-12-03T10:17:40.820Z,101059
2017-12-03T10:18:39.913Z,101050
2017-12-03T10:19:40.038Z,101060
2017-12-03T10:20:40.954Z,101052
2017-12-03T10:21:41.144Z,101059
2017-12-03T10:22:41.234Z,101061
2017-12-03T10:23:41.289Z,101058
2017-12-03T10:24:40.328Z,101058
2017-12-03T10:25:40.304Z,101059
2017-12-03T10:26:40.403Z,101058
2017-12-03T10:27:40.471Z,101055
2017-12-03T10:28:41.406Z,101054
2017-12-03T10:29:41.544Z,101053
2017-12-03T10:30:41.568Z,101047
2017-12-03T10:31:41.622Z,101054
2017-12-03T10:32:40.561Z,101046
2017-12-03T10:33:41.710Z,101055
2017-12-03T10:34:41.750Z,101049
2017-12-03T10:35:41.802Z,101058
2017-12-03T10:36:41.866Z,101056
2017-12-03T10:37:40.832Z,101054
2017-12-03T10:38:41.952Z,101055
2017-12-03T10:39:40.968Z,101055
2017-12-03T10:40:41.976Z,101051
2017-12-03T10:41:42.078Z,101053
2017-12-03T10:42:42.153Z,101049
2017-12-03T10:43:42.212Z,101054
2017-12-03T10:44:42.275Z,101049
2017-12-03T10:45:42.285Z,101044
2017-12-03T10:46:42.300Z,101047
2017-12-03T10:47:41.400Z,101043
2017-12-03T10:48:42.546Z,101045
2017-12-03T10:49:42.505Z,101045
2017-12-03T10:50:41.634Z,101033
2017-12-03T10:51:42.680Z,101042
2017-12-03T10:52:42.806Z,101041
2017-12-03T10:53:42.708Z,101040
2017-12-03T10:54:41.814Z,101041
2017-12-03T10:55:42.913Z,101037
2017-12-03T10:56:41.980Z,101036
2017-12-03T10:57:42.038Z,101039
2017-12-03T10:58:43.098Z,101033
2017-12-03T10:59:43.164Z,101034
2017-12-03T11:00:43.363Z,101022
2017-12-03T11:01:43.211Z,101029
2017-12-03T11:02:42.254Z,101028
2017-12-03T11:03:42.287Z,101017
2017-12-03T11:04:43.318Z,101026
2017-12-03T11:05:42.392Z,101022
2017-12-03T11:06:42.310Z,101021
2017-12-03T11:07:42.402Z,101019
2017-12-03T11:08:42.394Z,101017
2017-12-03T11:09:43.416Z,101010
2017-12-03T11:10:43.423Z,101018
2017-12-03T11:11:42.645Z,101014
2017-12-03T11:12:42.618Z,101011
2017-12-03T11:13:43.632Z,101016
2017-12-03T11:14:43.794Z,101010
2017-12-03T11:15:43.680Z,101009
2017-12-03T11:16:43.811Z,101008
2017-12-03T11:17:42.866Z,100999
2017-12-03T11:18:43.854Z,101005
2017-12-03T11:19:42.884Z,101002
2017-12-03T11:20:43.792Z,100999
2017-12-03T11:21:43.812Z,101002
2017-12-03T11:22:42.916Z,100997
2017-12-03T11:23:43.066Z,100997
2017-12-03T11:24:44.106Z,100997
2017-12-03T11:25:44.223Z,100984
2017-12-03T11:26:44.183Z,100998
2017-12-03T11:27:44.189Z,101001
2017-12-03T11:28:44.266Z,101000
2017-12-03T11:29:43.450Z,101005
2017-12-03T11:31:44.391Z,101007
2017-12-03T11:32:44.436Z,100998
2017-12-03T11:33:43.566Z,101008
2017-12-03T11:34:43.585Z,101014
2017-12-03T11:35:43.645Z,101011
2017-12-03T11:36:44.764Z,101009
2017-12-03T11:37:43.860Z,101014
2017-12-03T11:38:44.821Z,101001
2017-12-03T11:39:43.968Z,101013
2017-12-03T11:40:45.017Z,101008
2017-12-03T11:41:45.062Z,101011
2017-12-03T11:42:44.124Z,101011
2017-12-03T11:43:45.061Z,101013
2017-12-03T11:44:45.217Z,101004
2017-12-03T11:45:44.306Z,101013
2017-12-03T11:46:45.219Z,101001
2017-12-03T11:47:45.262Z,101004
2017-12-03T11:48:44.343Z,101006
2017-12-03T11:49:44.462Z,101003
2017-12-03T11:50:45.390Z,101006
2017-12-03T11:51:45.526Z,101003
2017-12-03T11:52:45.516Z,101004
2017-12-03T11:53:45.655Z,101007
2017-12-03T11:54:45.704Z,101005
2017-12-03T11:55:44.780Z,101006
2017-12-03T11:56:45.700Z,101004
2017-12-03T11:57:45.694Z,100999
2017-12-03T11:58:44.770Z,100998
2017-12-03T11:59:45.786Z,100994
2017-12-03T12:00:45.911Z,100994
2017-12-03T12:01:45.802Z,100991
2017-12-03T12:02:45.862Z,100993
2017-12-03T12:03:45.931Z,100988
2017-12-03T12:04:45.030Z,100984
2017-12-03T12:05:46.073Z,100983
2017-12-03T12:06:45.161Z,100985
2017-12-03T12:07:46.177Z,100985
2017-12-03T12:08:45.425Z,100987
2017-12-03T12:09:45.377Z,100984
2017-12-03T12:10:46.429Z,100982
2017-12-03T12:11:45.648Z,100982
2017-12-03T12:12:46.564Z,100983
2017-12-03T12:13:45.678Z,100982
2017-12-03T12:14:46.825Z,100978
2017-12-03T12:15:45.846Z,100980
2017-12-03T12:16:45.847Z,100979
2017-12-03T12:17:45.881Z,100976
2017-12-03T12:18:45.899Z,100978
2017-12-03T12:19:46.909Z,100978
2017-12-03T12:20:45.996Z,100974
2017-12-03T12:21:46.088Z,100978
2017-12-03T12:22:47.151Z,100978
2017-12-03T12:23:46.336Z,100969
2017-12-03T12:24:46.440Z,100978
2017-12-03T12:25:46.484Z,100971
2017-12-03T12:26:47.424Z,100972
2017-12-03T12:27:47.557Z,100978
2017-12-03T12:28:46.630Z,100972
2017-12-03T12:29:47.560Z,100977
2017-12-03T12:30:47.614Z,100973